METAR Data
IDs: Format: Raw Decoded Include TAF

Data at: 2108 UTC 18 Apr 2021

KILN 182054Z AUTO 27012KT 10SM CLR 17/M03 A2986 RMK AO2 SLP121 T01671033 58016